sensor_id;sensor_type;location;lat;lon;timestamp;temperature;humidity
7646;DHT22;3864;48.180;14.178;2022-11-11T00:01:00;3.60;99.90
7646;DHT22;3864;48.180;14.178;2022-11-11T00:03:27;3.60;99.90
7646;DHT22;3864;48.180;14.178;2022-11-11T00:06:00;3.50;99.90
7646;DHT22;3864;48.180;14.178;2022-11-11T00:08:27;3.50;99.90
7646;DHT22;3864;48.180;14.178;2022-11-11T00:11:00;3.40;99.90
7646;DHT22;3864;48.180;14.178;2022-11-11T00:13:27;3.40;99.90
7646;DHT22;3864;48.180;14.178;2022-11-11T00:15:55;3.50;99.90
7646;DHT22;3864;48.180;14.178;2022-11-11T00:18:24;3.40;99.90
7646;DHT22;3864;48.180;14.178;2022-11-11T00:21:12;3.40;99.90
7646;DHT22;3864;48.180;14.178;2022-11-11T00:24:22;3.30;99.90
7646;DHT22;3864;48.180;14.178;2022-11-11T00:27:07;3.10;99.90
7646;DHT22;3864;48.180;14.178;2022-11-11T00:29:35;3.00;99.90
7646;DHT22;3864;48.180;14.178;2022-11-11T00:32:03;2.90;99.90
7646;DHT22;3864;48.180;14.178;2022-11-11T00:34:52;2.80;99.90
7646;DHT22;3864;48.180;14.178;2022-11-11T00:37:38;2.70;99.90
7646;DHT22;3864;48.180;14.178;2022-11-11T00:40:06;2.60;99.90
7646;DHT22;3864;48.180;14.178;2022-11-11T00:42:33;2.40;99.90
7646;DHT22;3864;48.180;14.178;2022-11-11T00:45:01;2.30;99.90
7646;DHT22;3864;48.180;14.178;2022-11-11T00:47:28;2.30;99.90
7646;DHT22;3864;48.180;14.178;2022-11-11T00:50:17;2.20;99.90
7646;DHT22;3864;48.180;14.178;2022-11-11T00:53:03;2.20;99.90
7646;DHT22;3864;48.180;14.178;2022-11-11T00:55:30;2.10;99.90
7646;DHT22;3864;48.180;14.178;2022-11-11T00:57:58;2.00;99.90
7646;DHT22;3864;48.180;14.178;2022-11-11T01:00:25;2.00;99.90
7646;DHT22;3864;48.180;14.178;2022-11-11T01:02:52;2.00;99.90
7646;DHT22;3864;48.180;14.178;2022-11-11T01:05:21;2.10;99.90
7646;DHT22;3864;48.180;14.178;2022-11-11T01:07:49;2.20;99.90
7646;DHT22;3864;48.180;14.178;2022-11-11T01:10:17;2.30;99.90
7646;DHT22;3864;48.180;14.178;2022-11-11T01:12:58;2.40;99.90
7646;DHT22;3864;48.180;14.178;2022-11-11T01:15:37;2.50;99.90
7646;DHT22;3864;48.180;14.178;2022-11-11T01:18:05;2.60;99.90
7646;DHT22;3864;48.180;14.178;2022-11-11T01:20:35;2.70;99.90
7646;DHT22;3864;48.180;14.178;2022-11-11T01:23:03;2.80;99.90
7646;DHT22;3864;48.180;14.178;2022-11-11T01:25:32;2.90;99.90
7646;DHT22;3864;48.180;14.178;2022-11-11T01:28:00;2.90;99.90
7646;DHT22;3864;48.180;14.178;2022-11-11T01:30:27;3.00;99.90
7646;DHT22;3864;48.180;14.178;2022-11-11T01:32:54;3.10;99.90
7646;DHT22;3864;48.180;14.178;2022-11-11T01:35:22;3.10;99.90
7646;DHT22;3864;48.180;14.178;2022-11-11T01:37:51;3.20;99.90
7646;DHT22;3864;48.180;14.178;2022-11-11T01:40:18;3.30;99.90
7646;DHT22;3864;48.180;14.178;2022-11-11T01:42:50;3.30;99.90
7646;DHT22;3864;48.180;14.178;2022-11-11T01:48:27;3.50;99.90
7646;DHT22;3864;48.180;14.178;2022-11-11T01:51:18;3.60;99.90
7646;DHT22;3864;48.180;14.178;2022-11-11T01:53:55;3.60;99.90
7646;DHT22;3864;48.180;14.178;2022-11-11T01:56:25;3.60;99.90
7646;DHT22;3864;48.180;14.178;2022-11-11T01:58:54;3.60;99.90
7646;DHT22;3864;48.180;14.178;2022-11-11T02:01:23;3.60;99.90
7646;DHT22;3864;48.180;14.178;2022-11-11T02:03:52;3.60;99.90
7646;DHT22;3864;48.180;14.178;2022-11-11T02:06:43;3.70;99.90
7646;DHT22;3864;48.180;14.178;2022-11-11T02:09:12;3.70;99.90
7646;DHT22;3864;48.180;14.178;2022-11-11T02:11:41;3.60;99.90
7646;DHT22;3864;48.180;14.178;2022-11-11T02:14:26;3.60;99.90
7646;DHT22;3864;48.180;14.178;2022-11-11T02:17:07;3.60;99.90
7646;DHT22;3864;48.180;14.178;2022-11-11T02:19:44;3.60;99.90
7646;DHT22;3864;48.180;14.178;2022-11-11T02:22:18;3.60;99.90
7646;DHT22;3864;48.180;14.178;2022-11-11T02:24:47;3.60;99.90
7646;DHT22;3864;48.180;14.178;2022-11-11T02:27:16;3.60;99.90
7646;DHT22;3864;48.180;14.178;2022-11-11T02:29:47;3.50;99.90
7646;DHT22;3864;48.180;14.178;2022-11-11T02:32:15;3.50;99.90
7646;DHT22;3864;48.180;14.178;2022-11-11T02:34:42;3.50;99.90
7646;DHT22;3864;48.180;14.178;2022-11-11T02:37:10;3.50;99.90
7646;DHT22;3864;48.180;14.178;2022-11-11T02:39:42;3.50;99.90
7646;DHT22;3864;48.180;14.178;2022-11-11T02:42:14;3.50;99.90
7646;DHT22;3864;48.180;14.178;2022-11-11T02:44:42;3.50;99.90
7646;DHT22;3864;48.180;14.178;2022-11-11T02:47:10;3.50;99.90
7646;DHT22;3864;48.180;14.178;2022-11-11T02:49:37;3.40;99.90
7646;DHT22;3864;48.180;14.178;2022-11-11T02:52:05;3.30;99.90
7646;DHT22;3864;48.180;14.178;2022-11-11T02:54:32;3.40;99.90
7646;DHT22;3864;48.180;14.178;2022-11-11T02:56:59;3.40;99.90
7646;DHT22;3864;48.180;14.178;2022-11-11T02:59:38;3.30;99.90
7646;DHT22;3864;48.180;14.178;2022-11-11T03:02:07;3.30;99.90
7646;DHT22;3864;48.180;14.178;2022-11-11T03:04:34;3.30;99.90
7646;DHT22;3864;48.180;14.178;2022-11-11T03:07:04;3.40;99.90
7646;DHT22;3864;48.180;14.178;2022-11-11T03:09:32;3.40;99.90
7646;DHT22;3864;48.180;14.178;2022-11-11T03:11:59;3.40;99.90
7646;DHT22;3864;48.180;14.178;2022-11-11T03:14:26;3.40;99.90
7646;DHT22;3864;48.180;14.178;2022-11-11T03:16:56;3.40;99.90
7646;DHT22;3864;48.180;14.178;2022-11-11T03:19:40;3.40;99.90
7646;DHT22;3864;48.180;14.178;2022-11-11T03:22:07;3.30;99.90
7646;DHT22;3864;48.180;14.178;2022-11-11T03:24:33;3.30;99.90
7646;DHT22;3864;48.180;14.178;2022-11-11T03:27:17;3.30;99.90
7646;DHT22;3864;48.180;14.178;2022-11-11T03:29:44;3.30;99.90
7646;DHT22;3864;48.180;14.178;2022-11-11T03:32:13;3.40;99.90
7646;DHT22;3864;48.180;14.178;2022-11-11T03:34:41;3.40;99.90
7646;DHT22;3864;48.180;14.178;2022-11-11T03:37:09;3.40;99.90
7646;DHT22;3864;48.180;14.178;2022-11-11T03:39:54;3.40;99.90
7646;DHT22;3864;48.180;14.178;2022-11-11T03:42:22;3.40;99.90
7646;DHT22;3864;48.180;14.178;2022-11-11T03:44:49;3.40;99.90
7646;DHT22;3864;48.180;14.178;2022-11-11T03:47:18;3.50;99.90
7646;DHT22;3864;48.180;14.178;2022-11-11T03:49:45;3.50;99.90
7646;DHT22;3864;48.180;14.178;2022-11-11T03:52:13;3.60;99.90
7646;DHT22;3864;48.180;14.178;2022-11-11T03:54:40;3.60;99.90
7646;DHT22;3864;48.180;14.178;2022-11-11T03:57:07;3.60;99.90
7646;DHT22;3864;48.180;14.178;2022-11-11T03:59:52;3.70;99.90
7646;DHT22;3864;48.180;14.178;2022-11-11T04:02:21;3.60;99.90
7646;DHT22;3864;48.180;14.178;2022-11-11T04:05:06;3.70;99.90
7646;DHT22;3864;48.180;14.178;2022-11-11T04:07:50;3.60;99.90
7646;DHT22;3864;48.180;14.178;2022-11-11T04:10:35;3.60;99.90
7646;DHT22;3864;48.180;14.178;2022-11-11T04:13:03;3.60;99.90
7646;DHT22;3864;48.180;14.178;2022-11-11T04:15:47;3.60;99.90
7646;DHT22;3864;48.180;14.178;2022-11-11T04:18:35;3.50;99.90
7646;DHT22;3864;48.180;14.178;2022-11-11T04:21:20;3.50;99.90
7646;DHT22;3864;48.180;14.178;2022-11-11T04:24:05;3.50;99.90
7646;DHT22;3864;48.180;14.178;2022-11-11T04:26:54;3.40;99.90
7646;DHT22;3864;48.180;14.178;2022-11-11T04:29:20;3.30;99.90
7646;DHT22;3864;48.180;14.178;2022-11-11T04:31:58;3.30;99.90
7646;DHT22;3864;48.180;14.178;2022-11-11T04:34:45;3.30;99.90
7646;DHT22;3864;48.180;14.178;2022-11-11T04:37:14;3.30;99.90
7646;DHT22;3864;48.180;14.178;2022-11-11T04:39:42;3.30;99.90
7646;DHT22;3864;48.180;14.178;2022-11-11T04:42:26;3.20;99.90
7646;DHT22;3864;48.180;14.178;2022-11-11T04:44:54;3.10;99.90
7646;DHT22;3864;48.180;14.178;2022-11-11T04:47:51;2.90;99.90
7646;DHT22;3864;48.180;14.178;2022-11-11T04:50:21;2.90;99.90
7646;DHT22;3864;48.180;14.178;2022-11-11T04:52:48;2.90;99.90
7646;DHT22;3864;48.180;14.178;2022-11-11T04:55:16;2.90;99.90
7646;DHT22;3864;48.180;14.178;2022-11-11T04:58:01;2.90;99.90
7646;DHT22;3864;48.180;14.178;2022-11-11T05:00:28;3.00;99.90
7646;DHT22;3864;48.180;14.178;2022-11-11T05:02:56;3.00;99.90
7646;DHT22;3864;48.180;14.178;2022-11-11T05:05:43;3.10;99.90
7646;DHT22;3864;48.180;14.178;2022-11-11T05:08:28;3.10;99.90
7646;DHT22;3864;48.180;14.178;2022-11-11T05:11:13;3.10;99.90
7646;DHT22;3864;48.180;14.178;2022-11-11T05:13:40;3.10;99.90
7646;DHT22;3864;48.180;14.178;2022-11-11T05:16:26;3.10;99.90
7646;DHT22;3864;48.180;14.178;2022-11-11T05:19:13;3.00;99.90
7646;DHT22;3864;48.180;14.178;2022-11-11T05:22:04;3.10;99.90
7646;DHT22;3864;48.180;14.178;2022-11-11T05:24:32;3.00;99.90
7646;DHT22;3864;48.180;14.178;2022-11-11T05:27:17;3.00;99.90
7646;DHT22;3864;48.180;14.178;2022-11-11T05:29:45;3.00;99.90
7646;DHT22;3864;48.180;14.178;2022-11-11T05:32:16;3.00;99.90
7646;DHT22;3864;48.180;14.178;2022-11-11T05:34:44;3.10;99.90
7646;DHT22;3864;48.180;14.178;2022-11-11T05:37:13;3.20;99.90
7646;DHT22;3864;48.180;14.178;2022-11-11T05:39:41;3.20;99.90
7646;DHT22;3864;48.180;14.178;2022-11-11T05:42:09;3.20;99.90
7646;DHT22;3864;48.180;14.178;2022-11-11T05:44:37;3.30;99.90
7646;DHT22;3864;48.180;14.178;2022-11-11T05:47:04;3.30;99.90
7646;DHT22;3864;48.180;14.178;2022-11-11T05:49:32;3.30;99.90
7646;DHT22;3864;48.180;14.178;2022-11-11T05:51:59;3.30;99.90
7646;DHT22;3864;48.180;14.178;2022-11-11T05:54:29;3.40;99.90
7646;DHT22;3864;48.180;14.178;2022-11-11T05:56:56;3.40;99.90
7646;DHT22;3864;48.180;14.178;2022-11-11T05:59:25;3.40;99.90
7646;DHT22;3864;48.180;14.178;2022-11-11T06:01:53;3.50;99.90
7646;DHT22;3864;48.180;14.178;2022-11-11T06:04:20;3.50;99.90
7646;DHT22;3864;48.180;14.178;2022-11-11T06:06:48;3.50;99.90
7646;DHT22;3864;48.180;14.178;2022-11-11T06:09:15;3.60;99.90
7646;DHT22;3864;48.180;14.178;2022-11-11T06:11:44;3.60;99.90
7646;DHT22;3864;48.180;14.178;2022-11-11T06:14:12;3.60;99.90
7646;DHT22;3864;48.180;14.178;2022-11-11T06:16:39;3.70;99.90
7646;DHT22;3864;48.180;14.178;2022-11-11T06:19:06;3.70;99.90
7646;DHT22;3864;48.180;14.178;2022-11-11T06:21:34;3.80;99.90
7646;DHT22;3864;48.180;14.178;2022-11-11T06:24:21;3.90;99.90
7646;DHT22;3864;48.180;14.178;2022-11-11T06:26:50;3.90;99.90
7646;DHT22;3864;48.180;14.178;2022-11-11T06:29:17;3.90;99.90
7646;DHT22;3864;48.180;14.178;2022-11-11T06:31:45;3.90;99.90
7646;DHT22;3864;48.180;14.178;2022-11-11T06:34:12;3.90;99.90
7646;DHT22;3864;48.180;14.178;2022-11-11T06:36:40;3.90;99.90
7646;DHT22;3864;48.180;14.178;2022-11-11T06:39:07;4.10;99.90
7646;DHT22;3864;48.180;14.178;2022-11-11T06:41:35;4.10;99.90
7646;DHT22;3864;48.180;14.178;2022-11-11T06:44:04;4.20;99.90
7646;DHT22;3864;48.180;14.178;2022-11-11T06:46:31;4.20;99.90
7646;DHT22;3864;48.180;14.178;2022-11-11T06:48:59;4.20;99.90
7646;DHT22;3864;48.180;14.178;2022-11-11T06:51:26;4.30;99.90
7646;DHT22;3864;48.180;14.178;2022-11-11T06:53:53;4.40;99.90
7646;DHT22;3864;48.180;14.178;2022-11-11T06:56:21;4.40;99.90
7646;DHT22;3864;48.180;14.178;2022-11-11T06:58:48;4.50;99.90
7646;DHT22;3864;48.180;14.178;2022-11-11T07:01:17;4.50;99.90
7646;DHT22;3864;48.180;14.178;2022-11-11T07:03:44;4.50;99.90
7646;DHT22;3864;48.180;14.178;2022-11-11T07:06:12;4.70;99.90
7646;DHT22;3864;48.180;14.178;2022-11-11T07:08:39;4.80;99.90
7646;DHT22;3864;48.180;14.178;2022-11-11T07:11:09;4.80;99.90
7646;DHT22;3864;48.180;14.178;2022-11-11T07:13:36;4.70;99.90
7646;DHT22;3864;48.180;14.178;2022-11-11T07:16:04;4.60;99.90
7646;DHT22;3864;48.180;14.178;2022-11-11T07:18:33;4.60;99.90
7646;DHT22;3864;48.180;14.178;2022-11-11T07:21:00;4.60;99.90
7646;DHT22;3864;48.180;14.178;2022-11-11T07:23:28;4.70;99.90
7646;DHT22;3864;48.180;14.178;2022-11-11T07:25:55;4.80;99.90
7646;DHT22;3864;48.180;14.178;2022-11-11T07:28:22;4.90;99.90
7646;DHT22;3864;48.180;14.178;2022-11-11T07:30:50;4.90;99.90
7646;DHT22;3864;48.180;14.178;2022-11-11T07:33:17;4.80;99.90
7646;DHT22;3864;48.180;14.178;2022-11-11T07:35:46;4.80;99.90
7646;DHT22;3864;48.180;14.178;2022-11-11T07:38:14;4.70;99.90
7646;DHT22;3864;48.180;14.178;2022-11-11T07:40:41;4.70;99.90
7646;DHT22;3864;48.180;14.178;2022-11-11T07:43:08;4.80;99.90
7646;DHT22;3864;48.180;14.178;2022-11-11T07:45:36;4.60;99.90
7646;DHT22;3864;48.180;14.178;2022-11-11T07:48:04;4.70;99.90
7646;DHT22;3864;48.180;14.178;2022-11-11T07:50:31;4.80;99.90
7646;DHT22;3864;48.180;14.178;2022-11-11T07:53:00;4.70;99.90
7646;DHT22;3864;48.180;14.178;2022-11-11T07:55:27;4.70;99.90
7646;DHT22;3864;48.180;14.178;2022-11-11T07:57:56;4.70;99.90
7646;DHT22;3864;48.180;14.178;2022-11-11T08:00:23;4.70;99.90
7646;DHT22;3864;48.180;14.178;2022-11-11T08:02:51;4.70;99.90
7646;DHT22;3864;48.180;14.178;2022-11-11T08:05:19;4.90;99.90
7646;DHT22;3864;48.180;14.178;2022-11-11T08:07:46;4.90;99.90
7646;DHT22;3864;48.180;14.178;2022-11-11T08:10:15;5.00;99.90
7646;DHT22;3864;48.180;14.178;2022-11-11T08:12:43;5.10;99.90
7646;DHT22;3864;48.180;14.178;2022-11-11T08:15:27;5.30;99.90
7646;DHT22;3864;48.180;14.178;2022-11-11T08:17:55;5.30;99.90
7646;DHT22;3864;48.180;14.178;2022-11-11T08:20:22;5.30;99.90
7646;DHT22;3864;48.180;14.178;2022-11-11T08:22:49;5.50;99.90
7646;DHT22;3864;48.180;14.178;2022-11-11T08:25:21;5.50;99.90
7646;DHT22;3864;48.180;14.178;2022-11-11T08:27:48;5.50;99.90
7646;DHT22;3864;48.180;14.178;2022-11-11T08:30:16;5.50;99.90
7646;DHT22;3864;48.180;14.178;2022-11-11T08:32:43;5.60;99.90
7646;DHT22;3864;48.180;14.178;2022-11-11T08:35:10;5.80;99.90
7646;DHT22;3864;48.180;14.178;2022-11-11T08:37:38;5.90;99.90
7646;DHT22;3864;48.180;14.178;2022-11-11T08:40:06;5.90;99.90
7646;DHT22;3864;48.180;14.178;2022-11-11T08:42:35;5.90;99.90
7646;DHT22;3864;48.180;14.178;2022-11-11T08:45:03;5.90;99.90
7646;DHT22;3864;48.180;14.178;2022-11-11T08:47:30;5.90;99.90
7646;DHT22;3864;48.180;14.178;2022-11-11T08:49:58;5.90;99.90
7646;DHT22;3864;48.180;14.178;2022-11-11T08:52:25;5.90;99.90
7646;DHT22;3864;48.180;14.178;2022-11-11T08:54:53;6.00;99.90
7646;DHT22;3864;48.180;14.178;2022-11-11T08:57:20;5.90;99.90
7646;DHT22;3864;48.180;14.178;2022-11-11T08:59:49;5.90;99.90
7646;DHT22;3864;48.180;14.178;2022-11-11T09:02:16;5.80;99.90
7646;DHT22;3864;48.180;14.178;2022-11-11T09:04:43;5.80;99.90
7646;DHT22;3864;48.180;14.178;2022-11-11T09:07:12;5.90;99.90
7646;DHT22;3864;48.180;14.178;2022-11-11T09:09:39;5.90;99.90
7646;DHT22;3864;48.180;14.178;2022-11-11T09:12:06;6.00;99.90
7646;DHT22;3864;48.180;14.178;2022-11-11T09:14:33;6.10;99.90
7646;DHT22;3864;48.180;14.178;2022-11-11T09:17:02;6.10;99.90
7646;DHT22;3864;48.180;14.178;2022-11-11T09:19:29;6.10;99.90
7646;DHT22;3864;48.180;14.178;2022-11-11T09:21:57;6.00;99.90
7646;DHT22;3864;48.180;14.178;2022-11-11T09:24:24;6.00;99.90
7646;DHT22;3864;48.180;14.178;2022-11-11T09:26:53;6.00;99.90
7646;DHT22;3864;48.180;14.178;2022-11-11T09:29:21;6.00;99.90
7646;DHT22;3864;48.180;14.178;2022-11-11T09:31:48;6.10;99.90
7646;DHT22;3864;48.180;14.178;2022-11-11T09:34:17;6.20;99.90
7646;DHT22;3864;48.180;14.178;2022-11-11T09:36:44;6.40;99.90
7646;DHT22;3864;48.180;14.178;2022-11-11T09:39:11;6.40;99.90
7646;DHT22;3864;48.180;14.178;2022-11-11T09:41:50;6.50;99.90
7646;DHT22;3864;48.180;14.178;2022-11-11T09:44:29;6.50;99.90
7646;DHT22;3864;48.180;14.178;2022-11-11T09:47:03;6.50;99.90
7646;DHT22;3864;48.180;14.178;2022-11-11T09:49:45;6.50;99.90
7646;DHT22;3864;48.180;14.178;2022-11-11T09:52:17;6.50;99.90
7646;DHT22;3864;48.180;14.178;2022-11-11T09:54:49;6.40;99.90
7646;DHT22;3864;48.180;14.178;2022-11-11T09:57:25;6.50;99.90
7646;DHT22;3864;48.180;14.178;2022-11-11T09:59:55;6.60;99.90
7646;DHT22;3864;48.180;14.178;2022-11-11T10:02:31;6.60;99.90
7646;DHT22;3864;48.180;14.178;2022-11-11T10:05:06;6.70;99.90
7646;DHT22;3864;48.180;14.178;2022-11-11T10:07:38;6.90;99.90
7646;DHT22;3864;48.180;14.178;2022-11-11T10:10:19;7.00;99.90
7646;DHT22;3864;48.180;14.178;2022-11-11T10:12:53;7.20;99.90
7646;DHT22;3864;48.180;14.178;2022-11-11T10:15:21;7.20;99.90
7646;DHT22;3864;48.180;14.178;2022-11-11T10:20:53;7.40;99.90
7646;DHT22;3864;48.180;14.178;2022-11-11T10:23:25;7.40;99.90
7646;DHT22;3864;48.180;14.178;2022-11-11T10:25:56;7.40;99.90
7646;DHT22;3864;48.180;14.178;2022-11-11T10:28:27;7.40;99.90
7646;DHT22;3864;48.180;14.178;2022-11-11T10:30:55;7.40;99.90
7646;DHT22;3864;48.180;14.178;2022-11-11T10:33:25;7.40;99.90
7646;DHT22;3864;48.180;14.178;2022-11-11T10:35:55;7.30;99.90
7646;DHT22;3864;48.180;14.178;2022-11-11T10:38:32;7.20;99.90
7646;DHT22;3864;48.180;14.178;2022-11-11T10:41:08;7.10;99.90
7646;DHT22;3864;48.180;14.178;2022-11-11T10:43:37;7.20;99.90
7646;DHT22;3864;48.180;14.178;2022-11-11T10:46:12;7.20;99.90
7646;DHT22;3864;48.180;14.178;2022-11-11T10:48:50;7.20;99.90
7646;DHT22;3864;48.180;14.178;2022-11-11T10:51:21;7.20;99.90
7646;DHT22;3864;48.180;14.178;2022-11-11T10:53:57;7.30;99.90
7646;DHT22;3864;48.180;14.178;2022-11-11T10:56:34;7.50;99.90
7646;DHT22;3864;48.180;14.178;2022-11-11T10:59:07;7.60;99.90
7646;DHT22;3864;48.180;14.178;2022-11-11T11:01:40;7.70;99.90
7646;DHT22;3864;48.180;14.178;2022-11-11T11:04:15;7.70;99.90
7646;DHT22;3864;48.180;14.178;2022-11-11T11:06:47;7.70;99.90
7646;DHT22;3864;48.180;14.178;2022-11-11T11:09:20;7.70;99.90
7646;DHT22;3864;48.180;14.178;2022-11-11T11:11:51;7.80;99.90
7646;DHT22;3864;48.180;14.178;2022-11-11T11:14:27;8.00;99.90
7646;DHT22;3864;48.180;14.178;2022-11-11T11:16:59;8.20;99.90
7646;DHT22;3864;48.180;14.178;2022-11-11T11:19:28;8.20;99.90
7646;DHT22;3864;48.180;14.178;2022-11-11T11:21:58;8.30;99.90
7646;DHT22;3864;48.180;14.178;2022-11-11T11:24:27;8.50;99.90
7646;DHT22;3864;48.180;14.178;2022-11-11T11:26:57;8.70;99.90
7646;DHT22;3864;48.180;14.178;2022-11-11T11:29:27;8.70;99.90
7646;DHT22;3864;48.180;14.178;2022-11-11T11:31:55;8.80;99.90
7646;DHT22;3864;48.180;14.178;2022-11-11T11:34:45;8.60;99.90
7646;DHT22;3864;48.180;14.178;2022-11-11T11:37:15;8.60;99.90
7646;DHT22;3864;48.180;14.178;2022-11-11T11:39:43;8.50;99.90
7646;DHT22;3864;48.180;14.178;2022-11-11T11:42:26;8.30;99.90
7646;DHT22;3864;48.180;14.178;2022-11-11T11:44:53;8.10;99.90
7646;DHT22;3864;48.180;14.178;2022-11-11T11:47:33;7.90;99.90
7646;DHT22;3864;48.180;14.178;2022-11-11T11:50:23;7.80;99.90
7646;DHT22;3864;48.180;14.178;2022-11-11T11:53:05;7.70;99.90
7646;DHT22;3864;48.180;14.178;2022-11-11T11:55:38;7.80;99.90
7646;DHT22;3864;48.180;14.178;2022-11-11T11:58:20;7.90;99.90
7646;DHT22;3864;48.180;14.178;2022-11-11T12:01:02;7.90;99.90
7646;DHT22;3864;48.180;14.178;2022-11-11T12:03:55;8.00;99.90
7646;DHT22;3864;48.180;14.178;2022-11-11T12:06:32;8.20;99.90
7646;DHT22;3864;48.180;14.178;2022-11-11T12:09:09;8.20;99.90
7646;DHT22;3864;48.180;14.178;2022-11-11T12:11:48;8.30;99.90
7646;DHT22;3864;48.180;14.178;2022-11-11T12:14:36;8.40;99.90
7646;DHT22;3864;48.180;14.178;2022-11-11T12:17:22;8.40;99.90
7646;DHT22;3864;48.180;14.178;2022-11-11T12:20:00;8.60;99.90
7646;DHT22;3864;48.180;14.178;2022-11-11T12:22:48;8.60;99.90
7646;DHT22;3864;48.180;14.178;2022-11-11T12:25:27;8.90;99.90
7646;DHT22;3864;48.180;14.178;2022-11-11T12:27:59;9.30;99.90
7646;DHT22;3864;48.180;14.178;2022-11-11T12:30:29;9.50;99.90
7646;DHT22;3864;48.180;14.178;2022-11-11T12:33:17;9.30;99.90
7646;DHT22;3864;48.180;14.178;2022-11-11T12:35:56;9.20;99.90
7646;DHT22;3864;48.180;14.178;2022-11-11T12:38:39;9.00;99.90
7646;DHT22;3864;48.180;14.178;2022-11-11T12:41:15;9.00;99.90
7646;DHT22;3864;48.180;14.178;2022-11-11T12:43:50;8.80;99.90
7646;DHT22;3864;48.180;14.178;2022-11-11T12:46:29;8.70;99.90
7646;DHT22;3864;48.180;14.178;2022-11-11T12:49:06;8.50;99.90
7646;DHT22;3864;48.180;14.178;2022-11-11T12:51:50;8.40;99.90
7646;DHT22;3864;48.180;14.178;2022-11-11T12:54:30;8.20;99.90
7646;DHT22;3864;48.180;14.178;2022-11-11T12:57:09;8.20;99.90
7646;DHT22;3864;48.180;14.178;2022-11-11T13:00:02;8.10;99.90
7646;DHT22;3864;48.180;14.178;2022-11-11T13:03:03;8.10;99.90
7646;DHT22;3864;48.180;14.178;2022-11-11T13:05:35;8.10;99.90
7646;DHT22;3864;48.180;14.178;2022-11-11T13:11:13;7.70;99.90
7646;DHT22;3864;48.180;14.178;2022-11-11T13:14:01;7.70;99.90
7646;DHT22;3864;48.180;14.178;2022-11-11T13:16:31;7.80;99.90
7646;DHT22;3864;48.180;14.178;2022-11-11T13:19:01;7.80;99.90
7646;DHT22;3864;48.180;14.178;2022-11-11T13:21:33;7.70;99.90
7646;DHT22;3864;48.180;14.178;2022-11-11T13:24:03;7.70;99.90
7646;DHT22;3864;48.180;14.178;2022-11-11T13:26:36;7.70;99.90
7646;DHT22;3864;48.180;14.178;2022-11-11T13:29:43;7.90;99.90
7646;DHT22;3864;48.180;14.178;2022-11-11T13:32:16;8.00;99.90
7646;DHT22;3864;48.180;14.178;2022-11-11T13:34:46;8.10;99.90
7646;DHT22;3864;48.180;14.178;2022-11-11T13:37:20;8.30;99.90
7646;DHT22;3864;48.180;14.178;2022-11-11T13:39:50;8.50;99.90
7646;DHT22;3864;48.180;14.178;2022-11-11T13:42:22;8.40;99.90
7646;DHT22;3864;48.180;14.178;2022-11-11T13:44:55;8.40;99.90
7646;DHT22;3864;48.180;14.178;2022-11-11T13:47:28;8.30;99.90
7646;DHT22;3864;48.180;14.178;2022-11-11T13:50:03;8.30;99.90
7646;DHT22;3864;48.180;14.178;2022-11-11T13:52:33;8.20;99.90
7646;DHT22;3864;48.180;14.178;2022-11-11T13:55:03;8.20;99.90
7646;DHT22;3864;48.180;14.178;2022-11-11T13:57:31;8.20;99.90
7646;DHT22;3864;48.180;14.178;2022-11-11T14:00:04;8.00;99.90
7646;DHT22;3864;48.180;14.178;2022-11-11T14:02:32;7.90;99.90
7646;DHT22;3864;48.180;14.178;2022-11-11T14:05:21;7.70;99.90
7646;DHT22;3864;48.180;14.178;2022-11-11T14:07:59;7.70;99.90
7646;DHT22;3864;48.180;14.178;2022-11-11T14:10:51;7.70;99.90
7646;DHT22;3864;48.180;14.178;2022-11-11T14:13:37;7.60;99.90
7646;DHT22;3864;48.180;14.178;2022-11-11T14:16:10;7.60;99.90
7646;DHT22;3864;48.180;14.178;2022-11-11T14:18:44;7.50;99.90
7646;DHT22;3864;48.180;14.178;2022-11-11T14:21:42;7.40;99.90
7646;DHT22;3864;48.180;14.178;2022-11-11T14:24:21;7.30;99.90
7646;DHT22;3864;48.180;14.178;2022-11-11T14:26:57;7.20;99.90
7646;DHT22;3864;48.180;14.178;2022-11-11T14:29:29;7.20;99.90
7646;DHT22;3864;48.180;14.178;2022-11-11T14:32:33;7.10;99.90
7646;DHT22;3864;48.180;14.178;2022-11-11T14:35:23;7.10;99.90
7646;DHT22;3864;48.180;14.178;2022-11-11T14:38:21;7.00;99.90
7646;DHT22;3864;48.180;14.178;2022-11-11T14:40:52;6.90;99.90
7646;DHT22;3864;48.180;14.178;2022-11-11T14:43:37;6.80;99.90
7646;DHT22;3864;48.180;14.178;2022-11-11T14:46:09;6.70;99.90
7646;DHT22;3864;48.180;14.178;2022-11-11T14:48:53;6.70;99.90
7646;DHT22;3864;48.180;14.178;2022-11-11T14:51:57;6.70;99.90
7646;DHT22;3864;48.180;14.178;2022-11-11T14:54:45;6.70;99.90
7646;DHT22;3864;48.180;14.178;2022-11-11T14:57:20;6.70;99.90
7646;DHT22;3864;48.180;14.178;2022-11-11T14:59:49;6.70;99.90
7646;DHT22;3864;48.180;14.178;2022-11-11T15:02:28;6.60;99.90
7646;DHT22;3864;48.180;14.178;2022-11-11T15:05:01;6.50;99.90
7646;DHT22;3864;48.180;14.178;2022-11-11T15:07:57;6.50;99.90
7646;DHT22;3864;48.180;14.178;2022-11-11T15:10:37;6.60;99.90
7646;DHT22;3864;48.180;14.178;2022-11-11T15:13:34;6.60;99.90
7646;DHT22;3864;48.180;14.178;2022-11-11T15:16:10;6.60;99.90
7646;DHT22;3864;48.180;14.178;2022-11-11T15:19:22;6.60;99.90
7646;DHT22;3864;48.180;14.178;2022-11-11T15:22:05;6.50;99.90
7646;DHT22;3864;48.180;14.178;2022-11-11T15:24:39;6.50;99.90
7646;DHT22;3864;48.180;14.178;2022-11-11T15:27:16;6.50;99.90
7646;DHT22;3864;48.180;14.178;2022-11-11T15:30:04;6.50;99.90
7646;DHT22;3864;48.180;14.178;2022-11-11T15:32:49;6.50;99.90
7646;DHT22;3864;48.180;14.178;2022-11-11T15:35:33;6.50;99.90
7646;DHT22;3864;48.180;14.178;2022-11-11T15:38:04;6.40;99.90
7646;DHT22;3864;48.180;14.178;2022-11-11T15:40:43;6.40;99.90
7646;DHT22;3864;48.180;14.178;2022-11-11T15:43:15;6.40;99.90
7646;DHT22;3864;48.180;14.178;2022-11-11T15:45:44;6.40;99.90
7646;DHT22;3864;48.180;14.178;2022-11-11T15:48:17;6.30;99.90
7646;DHT22;3864;48.180;14.178;2022-11-11T15:50:46;6.30;99.90
7646;DHT22;3864;48.180;14.178;2022-11-11T15:53:21;6.30;99.90
7646;DHT22;3864;48.180;14.178;2022-11-11T15:55:53;6.20;99.90
7646;DHT22;3864;48.180;14.178;2022-11-11T15:58:25;6.20;99.90
7646;DHT22;3864;48.180;14.178;2022-11-11T16:00:54;6.10;99.90
7646;DHT22;3864;48.180;14.178;2022-11-11T16:03:27;6.10;99.90
7646;DHT22;3864;48.180;14.178;2022-11-11T16:05:55;6.10;99.90
7646;DHT22;3864;48.180;14.178;2022-11-11T16:08:24;6.10;99.90
7646;DHT22;3864;48.180;14.178;2022-11-11T16:10:56;6.10;99.90
7646;DHT22;3864;48.180;14.178;2022-11-11T16:13:27;6.00;99.90
7646;DHT22;3864;48.180;14.178;2022-11-11T16:15:59;6.10;99.90
7646;DHT22;3864;48.180;14.178;2022-11-11T16:18:31;6.10;99.90
7646;DHT22;3864;48.180;14.178;2022-11-11T16:21:03;6.10;99.90
7646;DHT22;3864;48.180;14.178;2022-11-11T16:23:34;6.10;99.90
7646;DHT22;3864;48.180;14.178;2022-11-11T16:26:03;6.20;99.90
7646;DHT22;3864;48.180;14.178;2022-11-11T16:28:37;6.20;99.90
7646;DHT22;3864;48.180;14.178;2022-11-11T16:31:28;6.10;99.90
7646;DHT22;3864;48.180;14.178;2022-11-11T16:33:57;6.20;99.90
7646;DHT22;3864;48.180;14.178;2022-11-11T16:36:24;6.10;99.90
7646;DHT22;3864;48.180;14.178;2022-11-11T16:38:53;6.10;99.90
7646;DHT22;3864;48.180;14.178;2022-11-11T16:41:25;6.00;99.90
7646;DHT22;3864;48.180;14.178;2022-11-11T16:43:54;6.00;99.90
7646;DHT22;3864;48.180;14.178;2022-11-11T16:46:39;6.00;99.90
7646;DHT22;3864;48.180;14.178;2022-11-11T16:49:23;6.00;99.90
7646;DHT22;3864;48.180;14.178;2022-11-11T16:51:51;6.00;99.90